Decoded Metar for K2W6 (CAPT DUKE RGNL in MD, USA) (IATA:2W6) | Meteo·Mobile Aviation Weather
aviador You're here:

K2W6 Decoded Metar

CAPT DUKE RGNL in MD, USA
Report Time2019-02-17 15:43:00
UTC Time2019-02-17 15:58:09
Flight Rules vfr VFR
Wind100° at 04 kt
W.Rank100° ranks 32
Current wind is below 100° avg. (4.6)
Visibility9999 m
Phenomena:N/A
Clouds:N/A
Expected CloudBase > 2,400 ft AGL from Temp-Dew spread
CeilingNone
Temp01°C (ISA -14)
Dew Point-5°C (65% RH)
AAT-3.0°C
QNH1021 hPa
Density Alt-1,742 ft
Elevation144 ft
Report Wrong Elevation
Raw Report
K2W6 171543Z AUTO 10004KT 10SM CLR 01/M05 A3016 RMK AO1=

Extra information for K2W6:More info

Metar Taf Metar & Taf Last 4 Metars F.Rules Stats Wind Profile Meteogram Temp Stats Airport Information Weather charts Add Link Nearby VenuesMetar ALERT Operation Metar Decoded Social comments

AIRNAV info for K2W6